createdAt,value
2023-03-16T00:00:51.039Z,99702.22
2023-03-16T00:01:53.545Z,99694.97
2023-03-16T00:02:56.007Z,99702.94
2023-03-16T00:04:02.390Z,99691.25
2023-03-16T00:05:11.716Z,99700.69
2023-03-16T00:06:16.394Z,99694.06
2023-03-16T00:07:22.784Z,99707.69
2023-03-16T00:08:30.324Z,99695.75
2023-03-16T00:09:33.767Z,99689.16
2023-03-16T00:10:36.830Z,99694.06
2023-03-16T00:11:40.014Z,99687.53
2023-03-16T00:12:44.140Z,99680.28
2023-03-16T00:13:49.573Z,99690.56
2023-03-16T00:14:55.839Z,99686.56
2023-03-16T00:16:05.430Z,99681.25
2023-03-16T00:17:19.762Z,99678.41
2023-03-16T00:18:28.695Z,99679.06
2023-03-16T00:19:35.588Z,99684.34
2023-03-16T00:20:42.250Z,99681.16
2023-03-16T00:21:44.654Z,99675.25
2023-03-16T00:22:47.814Z,99673.13
2023-03-16T00:23:49.921Z,99679.59
2023-03-16T00:24:53.972Z,99680.47
2023-03-16T00:25:59.883Z,99682.66
2023-03-16T00:27:04.176Z,99681.88
2023-03-16T00:28:09.685Z,99684.78
2023-03-16T00:29:12.614Z,99687.16
2023-03-16T00:30:19.253Z,99683.88
2023-03-16T00:31:25.278Z,99681.50
2023-03-16T00:32:37.742Z,99687.88
2023-03-16T00:33:43.102Z,99689.38
2023-03-16T00:34:47.174Z,99692.06
2023-03-16T00:35:51.453Z,99691.25
2023-03-16T00:36:55.363Z,99693.63
2023-03-16T00:37:57.994Z,99690.56
2023-03-16T00:39:01.120Z,99691.97
2023-03-16T00:40:08.984Z,99683.75
2023-03-16T00:41:19.193Z,99687.09
2023-03-16T00:42:33.255Z,99693.03
2023-03-16T00:43:45.619Z,99686.28
2023-03-16T00:44:48.808Z,99690.00
2023-03-16T00:46:00.940Z,99698.75
2023-03-16T00:47:14.760Z,99705.56
2023-03-16T00:48:24.596Z,99695.03
2023-03-16T00:49:27.242Z,99689.97
2023-03-16T00:50:30.095Z,99689.47
2023-03-16T00:51:34.126Z,99683.00
2023-03-16T00:52:40.023Z,99687.88
2023-03-16T00:53:49.028Z,99689.47
2023-03-16T00:54:53.481Z,99682.84
2023-03-16T00:55:57.705Z,99681.50
2023-03-16T00:57:02.795Z,99686.38
2023-03-16T00:58:17.983Z,99688.00
2023-03-16T00:59:22.433Z,99689.47
2023-03-16T01:00:28.679Z,99689.66
2023-03-16T01:01:34.419Z,99693.38
2023-03-16T01:02:42.204Z,99687.78
2023-03-16T01:03:45.160Z,99682.75
2023-03-16T01:04:54.542Z,99684.44
2023-03-16T01:06:00.385Z,99690.38
2023-03-16T01:07:05.002Z,99686.56
2023-03-16T01:08:07.417Z,99687.91
2023-03-16T01:09:15.547Z,99685.06
2023-03-16T01:10:22.769Z,99684.00
2023-03-16T01:11:29.260Z,99686.13
2023-03-16T01:12:35.544Z,99691.53
2023-03-16T01:13:39.379Z,99689.94
2023-03-16T01:16:08.331Z,99684.25
2023-03-16T01:17:14.032Z,99686.72
2023-03-16T01:18:25.527Z,99687.53
2023-03-16T01:19:31.303Z,99688.56
2023-03-16T01:20:35.117Z,99681.00
2023-03-16T01:21:45.467Z,99687.09
2023-03-16T01:22:49.439Z,99683.47
2023-03-16T01:23:54.976Z,99675.34
2023-03-16T01:25:00.674Z,99679.59
2023-03-16T01:26:12.737Z,99678.78
2023-03-16T01:27:16.868Z,99674.81
2023-03-16T01:28:22.199Z,99677.09
2023-03-16T01:29:25.520Z,99678.97
2023-03-16T01:30:30.838Z,99682.56
2023-03-16T01:31:34.914Z,99680.56
2023-03-16T01:32:38.400Z,99676.03
2023-03-16T01:33:44.432Z,99683.75
2023-03-16T01:34:50.827Z,99692.13
2023-03-16T01:35:56.579Z,99693.53
2023-03-16T01:37:05.846Z,99691.78
2023-03-16T01:38:23.132Z,99694.84
2023-03-16T01:39:25.911Z,99702.84
2023-03-16T01:40:30.740Z,99697.44
2023-03-16T01:41:33.045Z,99707.38
2023-03-16T01:42:45.917Z,99696.53
2023-03-16T01:43:49.392Z,99693.28
2023-03-16T01:44:55.524Z,99695.00
2023-03-16T01:46:19.784Z,99686.97
2023-03-16T01:47:24.118Z,99686.47
2023-03-16T01:48:28.908Z,99680.00
2023-03-16T01:49:39.155Z,99690.50
2023-03-16T01:50:46.338Z,99680.44
2023-03-16T01:51:56.445Z,99685.03
2023-03-16T01:53:01.857Z,99692.97
2023-03-16T01:54:15.070Z,99686.28
2023-03-16T01:55:18.552Z,99684.25
2023-03-16T01:56:27.483Z,99688.56
2023-03-16T01:57:37.160Z,99685.47
2023-03-16T01:58:42.748Z,99683.97
2023-03-16T01:59:49.374Z,99689.66
2023-03-16T02:00:52.246Z,99680.63
2023-03-16T02:01:59.443Z,99683.97
2023-03-16T02:03:11.897Z,99677.44
2023-03-16T02:04:34.339Z,99689.22
2023-03-16T02:05:56.736Z,99682.56
2023-03-16T02:07:01.444Z,99678.00
2023-03-16T02:08:07.221Z,99683.09
2023-03-16T02:09:12.501Z,99687.06
2023-03-16T02:10:23.853Z,99688.56
2023-03-16T02:11:30.852Z,99690.38
2023-03-16T02:12:51.531Z,99697.75
2023-03-16T02:14:16.208Z,99689.03
2023-03-16T02:15:27.645Z,99693.97
2023-03-16T02:16:30.261Z,99684.69
2023-03-16T02:17:36.196Z,99689.47
2023-03-16T02:18:44.555Z,99683.00
2023-03-16T02:20:38.532Z,99687.88
2023-03-16T02:22:07.619Z,99688.94
2023-03-16T02:23:19.785Z,99685.56
2023-03-16T02:24:25.549Z,99683.56
2023-03-16T02:25:37.368Z,99681.66
2023-03-16T02:26:58.538Z,99679.13
2023-03-16T02:28:21.472Z,99674.59
2023-03-16T02:29:52.031Z,99671.78
2023-03-16T02:30:58.996Z,99676.75
2023-03-16T02:32:03.182Z,99677.09
2023-03-16T02:33:07.908Z,99686.13
2023-03-16T02:34:10.813Z,99684.69
2023-03-16T02:35:13.995Z,99678.34
2023-03-16T02:36:19.936Z,99673.66
2023-03-16T02:37:23.182Z,99670.38
2023-03-16T02:38:27.520Z,99674.69
2023-03-16T02:39:31.740Z,99669.78
2023-03-16T02:40:36.771Z,99685.56
2023-03-16T02:41:43.171Z,99676.13
2023-03-16T02:43:05.040Z,99669.88
2023-03-16T02:44:34.461Z,99671.88
2023-03-16T02:45:49.924Z,99664.66
2023-03-16T02:47:03.043Z,99668.44
2023-03-16T02:48:14.831Z,99656.78
2023-03-16T02:49:27.642Z,99661.38
2023-03-16T02:50:30.421Z,99644.13
2023-03-16T02:51:33.461Z,99648.13
2023-03-16T02:52:40.401Z,99655.91
2023-03-16T02:53:52.910Z,99644.00
2023-03-16T02:54:59.231Z,99649.38
2023-03-16T02:56:05.324Z,99657.91
2023-03-16T02:57:22.214Z,99656.69
2023-03-16T02:58:30.532Z,99662.25
2023-03-16T02:59:34.316Z,99659.00
2023-03-16T03:00:41.021Z,99665.97
2023-03-16T03:01:43.348Z,99668.97
2023-03-16T03:02:49.648Z,99670.84
2023-03-16T03:03:56.238Z,99677.03
2023-03-16T03:05:02.159Z,99674.19
2023-03-16T03:06:08.260Z,99669.88
2023-03-16T03:07:16.070Z,99654.94
2023-03-16T03:08:39.781Z,99658.28
2023-03-16T03:09:44.033Z,99653.44
2023-03-16T03:10:51.512Z,99658.47
2023-03-16T03:11:56.398Z,99666.31
2023-03-16T03:13:00.689Z,99658.28
2023-03-16T03:14:06.041Z,99667.31
2023-03-16T03:15:10.366Z,99657.41
2023-03-16T03:16:27.460Z,99658.38
2023-03-16T03:17:34.298Z,99660.75
2023-03-16T03:18:38.354Z,99655.81
2023-03-16T03:19:40.804Z,99659.88
2023-03-16T03:20:44.585Z,99659.78
2023-03-16T03:21:48.140Z,99673.84
2023-03-16T03:22:53.827Z,99658.28
2023-03-16T03:24:00.609Z,99658.19
2023-03-16T03:26:42.584Z,99657.88
2023-03-16T03:27:57.325Z,99652.63
2023-03-16T03:29:01.317Z,99658.91
2023-03-16T03:30:13.187Z,99646.72
2023-03-16T03:31:19.409Z,99643.97
2023-03-16T03:32:26.412Z,99643.44
2023-03-16T03:33:33.892Z,99644.38
2023-03-16T03:34:47.557Z,99642.97
2023-03-16T03:35:58.669Z,99639.00
2023-03-16T03:37:07.995Z,99635.22
2023-03-16T03:38:14.884Z,99636.28
2023-03-16T03:39:21.814Z,99635.94
2023-03-16T03:40:26.315Z,99640.44
2023-03-16T03:41:36.234Z,99644.22
2023-03-16T03:42:43.749Z,99629.06
2023-03-16T03:43:48.624Z,99648.28
2023-03-16T03:44:54.143Z,99645.81
2023-03-16T03:46:01.254Z,99648.22
2023-03-16T03:47:10.728Z,99644.41
2023-03-16T03:48:13.804Z,99642.47
2023-03-16T03:49:18.181Z,99636.56
2023-03-16T03:50:21.506Z,99640.00
2023-03-16T03:51:34.799Z,99647.59
2023-03-16T03:52:48.226Z,99645.03
2023-03-16T03:53:52.423Z,99644.84
2023-03-16T03:55:14.007Z,99647.59
2023-03-16T03:56:22.879Z,99648.22
2023-03-16T03:57:25.209Z,99649.00
2023-03-16T03:58:27.360Z,99647.78
2023-03-16T03:59:29.859Z,99654.59
2023-03-16T04:00:33.823Z,99649.00
2023-03-16T04:01:40.981Z,99648.47
2023-03-16T04:02:45.527Z,99649.19
2023-03-16T04:04:09.042Z,99658.00
2023-03-16T04:05:16.577Z,99659.00
2023-03-16T04:06:24.173Z,99652.91
2023-03-16T04:07:33.590Z,99664.03
2023-03-16T04:08:40.881Z,99668.19
2023-03-16T04:10:17.605Z,99664.56
2023-03-16T04:11:27.758Z,99661.66
2023-03-16T04:12:36.681Z,99651.84
2023-03-16T04:13:47.580Z,99660.50
2023-03-16T04:14:55.675Z,99659.19
2023-03-16T04:16:03.800Z,99659.09
2023-03-16T04:17:16.013Z,99653.72
2023-03-16T04:18:29.689Z,99657.88
2023-03-16T04:19:32.295Z,99659.09
2023-03-16T04:20:43.559Z,99660.66
2023-03-16T04:21:59.544Z,99655.63
2023-03-16T04:23:22.825Z,99655.03
2023-03-16T04:24:46.673Z,99650.59
2023-03-16T04:26:43.652Z,99654.66
2023-03-16T04:34:26.918Z,99653.88
2023-03-16T04:35:38.968Z,99649.53
2023-03-16T04:36:47.233Z,99644.28
2023-03-16T04:38:02.819Z,99647.81
2023-03-16T04:39:34.211Z,99645.00
2023-03-16T04:40:51.753Z,99650.47
2023-03-16T04:42:23.064Z,99650.88
2023-03-16T04:43:37.779Z,99658.75
2023-03-16T04:44:54.170Z,99653.19
2023-03-16T04:45:58.916Z,99660.88
2023-03-16T04:47:11.392Z,99669.81
2023-03-16T04:48:26.279Z,99676.69
2023-03-16T04:49:31.628Z,99675.00
2023-03-16T04:50:36.868Z,99676.44
2023-03-16T04:51:43.017Z,99676.88
2023-03-16T04:53:21.825Z,99681.66
2023-03-16T04:54:32.833Z,99680.03
2023-03-16T04:55:36.998Z,99675.97
2023-03-16T04:56:47.263Z,99684.84
2023-03-16T04:58:05.601Z,99683.72
2023-03-16T04:59:16.235Z,99676.63
2023-03-16T05:01:57.332Z,99678.66
2023-03-16T05:03:08.197Z,99682.44
2023-03-16T05:04:19.685Z,99685.03
2023-03-16T05:05:23.340Z,99694.38
2023-03-16T05:06:29.832Z,99693.47
2023-03-16T05:07:34.782Z,99692.00
2023-03-16T05:08:43.622Z,99684.56
2023-03-16T05:09:48.340Z,99695.59
2023-03-16T05:10:58.033Z,99690.31
2023-03-16T05:12:25.299Z,99695.63
2023-03-16T05:13:34.544Z,99695.19
2023-03-16T05:14:37.119Z,99700.84
2023-03-16T05:15:49.702Z,99708.13
2023-03-16T05:16:57.607Z,99697.25
2023-03-16T05:18:03.172Z,99704.44
2023-03-16T05:19:08.738Z,99700.41
2023-03-16T05:20:15.964Z,99701.53
2023-03-16T05:21:22.863Z,99704.06
2023-03-16T05:22:32.584Z,99707.22
2023-03-16T05:23:54.590Z,99704.25
2023-03-16T05:24:57.209Z,99708.34
2023-03-16T05:26:13.753Z,99708.34
2023-03-16T05:27:20.443Z,99710.56
2023-03-16T05:28:25.028Z,99709.50
2023-03-16T05:29:33.298Z,99711.50
2023-03-16T05:30:41.974Z,99707.91
2023-03-16T05:31:47.911Z,99705.75
2023-03-16T05:32:59.746Z,99701.88
2023-03-16T05:34:11.169Z,99699.66
2023-03-16T05:35:14.590Z,99692.28
2023-03-16T05:36:17.749Z,99695.56
2023-03-16T05:37:24.494Z,99687.44
2023-03-16T05:38:38.270Z,99683.63
2023-03-16T05:39:44.430Z,99676.75
2023-03-16T05:40:53.228Z,99683.28
2023-03-16T05:42:16.559Z,99673.75
2023-03-16T05:43:31.717Z,99684.50
2023-03-16T05:44:36.976Z,99678.34
2023-03-16T05:45:59.292Z,99691.13
2023-03-16T05:47:02.464Z,99688.91
2023-03-16T05:48:08.661Z,99682.53
2023-03-16T05:49:20.152Z,99690.84
2023-03-16T05:50:23.535Z,99686.78
2023-03-16T05:51:29.105Z,99688.44
2023-03-16T05:52:32.851Z,99687.78
2023-03-16T05:53:47.451Z,99687.16
2023-03-16T05:55:13.730Z,99684.78
2023-03-16T05:56:16.973Z,99694.16
2023-03-16T05:57:21.345Z,99693.09
2023-03-16T05:58:26.581Z,99692.66
2023-03-16T05:59:31.206Z,99697.19
2023-03-16T06:00:34.016Z,99698.25
2023-03-16T06:01:46.856Z,99696.53
2023-03-16T06:02:52.109Z,99706.44
2023-03-16T06:03:55.041Z,99707.72
2023-03-16T06:05:02.255Z,99699.16
2023-03-16T06:06:04.679Z,99708.69
2023-03-16T06:07:14.316Z,99715.72
2023-03-16T06:08:16.700Z,99718.25
2023-03-16T06:09:22.683Z,99714.28
2023-03-16T06:10:27.083Z,99719.50
2023-03-16T06:11:29.607Z,99713.47
2023-03-16T06:12:32.726Z,99717.56
2023-03-16T06:13:35.689Z,99711.38
2023-03-16T06:14:40.167Z,99714.56
2023-03-16T06:15:44.614Z,99712.47
2023-03-16T06:16:48.598Z,99709.09
2023-03-16T06:17:52.726Z,99706.41
2023-03-16T06:18:58.518Z,99712.28
2023-03-16T06:21:23.382Z,99711.03
2023-03-16T06:22:31.944Z,99711.91
2023-03-16T06:23:37.483Z,99710.16
2023-03-16T06:24:42.841Z,99716.41
2023-03-16T06:25:48.375Z,99724.63
2023-03-16T06:26:51.625Z,99721.63
2023-03-16T06:27:56.655Z,99718.88
2023-03-16T06:29:01.407Z,99724.91
2023-03-16T06:30:07.225Z,99723.03
2023-03-16T06:31:10.033Z,99718.19
2023-03-16T06:32:13.321Z,99709.50
2023-03-16T06:33:16.604Z,99715.16
2023-03-16T06:34:24.173Z,99719.84
2023-03-16T06:36:57.237Z,99731.31
2023-03-16T06:38:02.331Z,99738.13
2023-03-16T06:39:34.862Z,99738.69
2023-03-16T06:40:38.132Z,99742.81
2023-03-16T06:41:43.354Z,99740.16
2023-03-16T06:42:48.570Z,99738.28
2023-03-16T06:43:55.923Z,99751.38
2023-03-16T06:45:01.363Z,99742.56
2023-03-16T06:46:05.982Z,99739.78
2023-03-16T06:47:08.836Z,99738.31
2023-03-16T06:48:32.524Z,99743.22
2023-03-16T06:49:39.551Z,99732.19
2023-03-16T06:51:18.624Z,99738.38
2023-03-16T06:52:23.075Z,99737.59
2023-03-16T06:53:25.767Z,99732.16
2023-03-16T06:54:29.796Z,99725.09
2023-03-16T06:55:32.720Z,99728.00
2023-03-16T06:56:37.521Z,99726.41
2023-03-16T06:57:41.638Z,99724.81
2023-03-16T06:58:48.519Z,99726.25
2023-03-16T06:59:51.409Z,99732.97
2023-03-16T07:00:54.389Z,99728.81
2023-03-16T07:01:57.894Z,99727.13
2023-03-16T07:03:02.326Z,99731.28
2023-03-16T07:04:06.066Z,99725.72
2023-03-16T07:05:13.905Z,99723.72
2023-03-16T07:06:18.133Z,99717.31
2023-03-16T07:07:20.464Z,99717.06
2023-03-16T07:08:23.099Z,99711.47
2023-03-16T07:09:26.581Z,99717.94
2023-03-16T07:10:29.996Z,99714.09
2023-03-16T07:11:36.758Z,99711.06
2023-03-16T07:12:42.021Z,99712.22
2023-03-16T07:13:45.582Z,99710.97
2023-03-16T07:14:54.379Z,99707.19
2023-03-16T07:16:00.360Z,99709.56
2023-03-16T07:17:02.776Z,99713.91
2023-03-16T07:18:11.023Z,99715.63
2023-03-16T07:19:13.810Z,99719.00
2023-03-16T07:20:23.751Z,99710.53
2023-03-16T07:21:26.353Z,99718.16
2023-03-16T07:22:29.184Z,99712.13
2023-03-16T07:23:33.678Z,99716.59
2023-03-16T07:24:42.355Z,99716.72
2023-03-16T07:25:46.248Z,99718.44
2023-03-16T07:26:53.489Z,99724.41
2023-03-16T07:28:10.771Z,99714.31
2023-03-16T07:29:18.955Z,99725.19
2023-03-16T07:30:22.409Z,99724.22
2023-03-16T07:31:26.072Z,99723.25
2023-03-16T07:32:30.437Z,99722.34
2023-03-16T07:33:36.313Z,99721.47
2023-03-16T07:34:43.846Z,99712.38
2023-03-16T07:35:46.769Z,99719.44
2023-03-16T07:36:49.782Z,99713.34
2023-03-16T07:37:52.294Z,99724.69
2023-03-16T07:38:55.447Z,99725.28
2023-03-16T07:39:57.915Z,99721.47
2023-03-16T07:41:01.456Z,99722.19
2023-03-16T07:42:04.506Z,99721.09
2023-03-16T07:43:19.844Z,99721.09
2023-03-16T07:44:25.506Z,99721.63
2023-03-16T07:45:30.334Z,99724.53
2023-03-16T07:46:33.704Z,99722.22
2023-03-16T07:47:36.824Z,99722.00
2023-03-16T07:48:46.553Z,99721.66
2023-03-16T07:49:52.762Z,99716.19
2023-03-16T07:51:07.452Z,99712.03
2023-03-16T07:52:10.257Z,99710.44
2023-03-16T07:53:30.655Z,99711.06
2023-03-16T07:55:11.432Z,99714.94
2023-03-16T07:56:17.400Z,99705.31
2023-03-16T07:57:23.652Z,99717.69
2023-03-16T07:58:26.167Z,99716.38
2023-03-16T07:59:29.449Z,99719.00
2023-03-16T08:00:32.730Z,99711.16
2023-03-16T08:01:39.176Z,99709.03
2023-03-16T08:02:42.707Z,99700.97
2023-03-16T08:03:48.434Z,99702.91
2023-03-16T08:04:52.248Z,99704.94
2023-03-16T08:05:55.673Z,99699.91
2023-03-16T08:07:02.581Z,99703.63
2023-03-16T08:08:20.657Z,99700.34
2023-03-16T08:09:23.750Z,99700.53
2023-03-16T08:10:32.515Z,99712.56
2023-03-16T08:11:47.276Z,99710.34
2023-03-16T08:12:49.842Z,99703.88
2023-03-16T08:13:56.859Z,99705.03
2023-03-16T08:15:02.712Z,99704.66
2023-03-16T08:16:10.825Z,99706.97
2023-03-16T08:17:15.733Z,99705.63
2023-03-16T08:18:19.788Z,99710.81
2023-03-16T08:19:23.023Z,99703.97
2023-03-16T08:20:26.933Z,99705.22
2023-03-16T08:21:30.707Z,99705.22
2023-03-16T08:22:37.539Z,99707.88
2023-03-16T08:23:40.507Z,99708.94
2023-03-16T08:24:45.381Z,99714.59
2023-03-16T08:25:55.484Z,99715.19
2023-03-16T08:28:26.421Z,99714.28
2023-03-16T08:29:31.228Z,99722.44
2023-03-16T08:30:34.414Z,99714.56
2023-03-16T08:31:56.469Z,99716.81
2023-03-16T08:33:07.169Z,99719.31
2023-03-16T08:34:12.644Z,99715.31
2023-03-16T08:35:20.884Z,99714.00
2023-03-16T08:36:25.354Z,99719.41
2023-03-16T08:37:30.068Z,99712.84
2023-03-16T08:38:35.265Z,99719.16
2023-03-16T08:39:42.812Z,99724.09
2023-03-16T08:40:51.395Z,99729.72
2023-03-16T08:41:59.007Z,99723.09
2023-03-16T08:43:19.458Z,99718.72
2023-03-16T08:44:29.023Z,99718.44
2023-03-16T08:45:31.655Z,99723.78
2023-03-16T08:46:34.609Z,99727.44
2023-03-16T08:47:40.695Z,99723.78
2023-03-16T08:48:51.528Z,99722.81
2023-03-16T08:50:00.518Z,99721.25
2023-03-16T08:51:04.395Z,99714.53
2023-03-16T08:52:10.520Z,99722.81
2023-03-16T08:53:17.518Z,99728.75
2023-03-16T08:54:20.628Z,99730.09
2023-03-16T08:55:24.699Z,99719.63
2023-03-16T08:56:27.629Z,99721.38
2023-03-16T08:57:34.887Z,99723.16
2023-03-16T08:58:40.505Z,99718.75
2023-03-16T08:59:45.190Z,99718.25
2023-03-16T09:00:51.006Z,99725.31
2023-03-16T09:02:04.484Z,99728.13
2023-03-16T09:03:08.264Z,99723.75
2023-03-16T09:04:12.033Z,99722.00
2023-03-16T09:05:16.136Z,99726.16
2023-03-16T09:06:18.932Z,99726.75
2023-03-16T09:07:21.310Z,99729.19
2023-03-16T09:08:27.721Z,99724.97
2023-03-16T09:09:36.018Z,99725.28
2023-03-16T09:10:38.377Z,99724.59
2023-03-16T09:11:40.643Z,99725.28
2023-03-16T09:12:45.600Z,99726.69
2023-03-16T09:13:48.477Z,99721.75
2023-03-16T09:14:52.065Z,99721.66
2023-03-16T09:15:55.375Z,99716.88
2023-03-16T09:16:57.770Z,99722.63
2023-03-16T09:18:04.005Z,99722.81
2023-03-16T09:19:07.579Z,99720.50
2023-03-16T09:20:34.890Z,99722.13
2023-03-16T09:21:37.869Z,99722.91
2023-03-16T09:22:41.656Z,99732.91
2023-03-16T09:23:44.698Z,99724.75
2023-03-16T09:24:53.213Z,99728.75
2023-03-16T09:26:05.627Z,99725.16
2023-03-16T09:27:08.123Z,99727.75
2023-03-16T09:28:13.323Z,99725.31
2023-03-16T09:29:16.445Z,99724.97
2023-03-16T09:30:19.277Z,99723.91
2023-03-16T09:31:23.119Z,99724.91
2023-03-16T09:32:25.930Z,99728.13
2023-03-16T09:33:30.133Z,99728.88
2023-03-16T09:34:34.801Z,99730.19
2023-03-16T09:35:38.055Z,99724.41
2023-03-16T09:36:42.000Z,99727.53
2023-03-16T09:38:01.048Z,99722.59
2023-03-16T09:39:10.189Z,99725.19
2023-03-16T09:40:36.199Z,99720.22
2023-03-16T09:41:49.551Z,99724.19
2023-03-16T09:43:06.983Z,99726.25
2023-03-16T09:44:56.072Z,99719.47
2023-03-16T09:46:42.499Z,99729.03
2023-03-16T09:47:50.783Z,99727.38
2023-03-16T09:48:55.552Z,99725.56
2023-03-16T09:50:07.028Z,99724.63
2023-03-16T09:51:45.079Z,99722.31
2023-03-16T09:53:05.752Z,99720.88
2023-03-16T09:54:48.453Z,99712.94
2023-03-16T09:55:58.970Z,99715.00
2023-03-16T09:57:06.878Z,99721.44
2023-03-16T09:58:22.977Z,99712.34
2023-03-16T09:59:29.794Z,99725.09
2023-03-16T10:00:42.077Z,99717.16
2023-03-16T10:02:05.364Z,99715.47
2023-03-16T10:03:59.409Z,99708.81
2023-03-16T10:05:20.622Z,99719.44
2023-03-16T10:06:42.631Z,99715.59
2023-03-16T10:08:13.462Z,99713.81
2023-03-16T10:09:40.637Z,99713.28
2023-03-16T10:11:17.722Z,99710.97
2023-03-16T10:12:33.826Z,99709.16
2023-03-16T10:14:08.169Z,99719.63
2023-03-16T10:15:15.667Z,99712.00
2023-03-16T10:16:23.612Z,99708.47
2023-03-16T10:17:29.613Z,99713.06
2023-03-16T10:18:43.940Z,99720.75
2023-03-16T10:19:51.881Z,99721.91
2023-03-16T10:20:58.672Z,99716.88
2023-03-16T10:22:10.286Z,99719.38
2023-03-16T10:23:26.198Z,99723.91
2023-03-16T10:25:08.337Z,99728.84
2023-03-16T10:26:15.084Z,99720.44
2023-03-16T10:27:29.188Z,99714.06
2023-03-16T10:28:32.554Z,99724.19
2023-03-16T10:29:37.259Z,99723.19
2023-03-16T10:30:42.832Z,99721.16
2023-03-16T10:31:49.375Z,99719.56
2023-03-16T10:32:53.373Z,99728.53
2023-03-16T10:34:04.960Z,99724.03
2023-03-16T10:35:30.223Z,99724.19
2023-03-16T10:36:35.944Z,99735.41
2023-03-16T10:37:39.068Z,99728.22
2023-03-16T10:38:47.021Z,99737.63
2023-03-16T10:39:50.533Z,99741.38
2023-03-16T10:40:54.642Z,99737.03
2023-03-16T10:41:59.493Z,99739.81
2023-03-16T10:43:14.623Z,99734.03
2023-03-16T10:44:23.934Z,99733.16
2023-03-16T10:45:32.321Z,99726.94
2023-03-16T10:46:39.657Z,99723.91
2023-03-16T10:47:42.426Z,99729.75
2023-03-16T10:49:00.408Z,99723.03
2023-03-16T10:50:16.957Z,99726.09
2023-03-16T10:51:26.318Z,99723.03
2023-03-16T10:52:50.162Z,99724.50
2023-03-16T10:53:53.148Z,99725.50
2023-03-16T10:55:21.419Z,99725.75
2023-03-16T10:56:26.584Z,99731.28
2023-03-16T10:57:42.387Z,99730.91
2023-03-16T10:58:46.588Z,99726.78
2023-03-16T10:59:50.986Z,99739.28
2023-03-16T11:00:55.367Z,99733.50
2023-03-16T11:01:58.592Z,99735.47
2023-03-16T11:03:02.046Z,99733.63
2023-03-16T11:04:16.780Z,99731.25
2023-03-16T11:05:19.246Z,99736.97
2023-03-16T11:06:40.120Z,99734.69
2023-03-16T11:08:02.545Z,99730.34
2023-03-16T11:09:15.266Z,99724.91
2023-03-16T11:10:46.110Z,99732.72
2023-03-16T11:11:56.100Z,99730.97
2023-03-16T11:13:21.637Z,99730.31
2023-03-16T11:14:28.997Z,99735.28
2023-03-16T11:16:02.906Z,99738.97
2023-03-16T11:17:15.131Z,99734.94
2023-03-16T11:18:30.250Z,99727.47
2023-03-16T11:19:49.669Z,99729.72
2023-03-16T11:20:53.268Z,99739.94
2023-03-16T11:22:16.729Z,99736.06
2023-03-16T11:23:29.739Z,99737.81
2023-03-16T11:24:52.992Z,99731.28
2023-03-16T11:25:59.689Z,99740.53
2023-03-16T11:27:08.741Z,99730.56
2023-03-16T11:29:36.293Z,99732.53
2023-03-16T11:30:48.046Z,99735.94
2023-03-16T11:31:53.821Z,99742.13
2023-03-16T11:32:57.038Z,99746.44
2023-03-16T11:34:00.346Z,99736.25
2023-03-16T11:35:08.244Z,99737.84
2023-03-16T11:36:32.022Z,99749.88
2023-03-16T11:38:09.875Z,99745.91
2023-03-16T11:39:18.334Z,99754.63
2023-03-16T11:40:54.203Z,99748.34
2023-03-16T11:42:04.813Z,99747.00
2023-03-16T11:43:10.090Z,99747.03
2023-03-16T11:44:29.269Z,99755.56
2023-03-16T11:45:33.961Z,99756.81
2023-03-16T11:46:44.791Z,99748.75
2023-03-16T11:48:00.118Z,99754.88
2023-03-16T11:49:30.263Z,99749.31
2023-03-16T11:50:58.966Z,99747.78
2023-03-16T11:52:20.329Z,99753.72
2023-03-16T11:53:36.492Z,99759.53
2023-03-16T11:54:56.458Z,99764.81
2023-03-16T11:56:29.006Z,99764.94
2023-03-16T11:58:10.622Z,99761.69
2023-03-16T11:59:34.869Z,99767.19
2023-03-16T12:00:59.591Z,99776.47
2023-03-16T12:02:48.756Z,99778.78
2023-03-16T12:04:30.851Z,99775.94
2023-03-16T12:06:22.227Z,99773.66
2023-03-16T12:07:40.201Z,99778.69
2023-03-16T12:09:04.777Z,99791.69
2023-03-16T12:10:39.179Z,99780.19
2023-03-16T12:12:00.615Z,99776.94
2023-03-16T12:13:30.930Z,99770.88
2023-03-16T12:14:53.511Z,99768.25
2023-03-16T12:16:13.152Z,99779.94
2023-03-16T12:17:28.382Z,99769.41
2023-03-16T12:18:57.865Z,99777.13
2023-03-16T12:20:29.197Z,99772.25
2023-03-16T12:21:43.360Z,99773.94
2023-03-16T12:23:05.605Z,99775.78
2023-03-16T12:24:22.925Z,99776.50
2023-03-16T12:25:35.158Z,99778.06
2023-03-16T12:26:42.849Z,99777.22
2023-03-16T12:27:53.376Z,99771.00
2023-03-16T12:28:58.884Z,99766.38
2023-03-16T12:30:21.764Z,99778.34
2023-03-16T12:31:49.868Z,99773.38
2023-03-16T12:33:18.821Z,99769.66
2023-03-16T12:34:21.201Z,99775.16
2023-03-16T12:35:26.699Z,99771.34
2023-03-16T12:36:49.577Z,99772.97
2023-03-16T12:38:26.006Z,99775.06
2023-03-16T12:39:47.303Z,99779.22
2023-03-16T12:41:05.267Z,99779.84
2023-03-16T12:42:29.602Z,99780.38
2023-03-16T12:43:38.036Z,99777.13
2023-03-16T12:44:55.529Z,99780.47
2023-03-16T12:46:23.252Z,99779.06
2023-03-16T12:47:55.211Z,99784.97
2023-03-16T12:49:01.989Z,99781.78
2023-03-16T12:50:11.641Z,99785.69
2023-03-16T12:51:14.271Z,99783.22
2023-03-16T12:52:20.704Z,99783.75
2023-03-16T12:53:44.895Z,99779.06
2023-03-16T12:55:05.983Z,99786.59
2023-03-16T12:56:18.717Z,99787.19
2023-03-16T12:58:49.637Z,99780.56
2023-03-16T13:00:00.320Z,99788.50
2023-03-16T13:01:05.702Z,99789.84
2023-03-16T13:02:25.141Z,99791.06
2023-03-16T13:03:29.207Z,99797.19
2023-03-16T13:04:35.751Z,99798.34
2023-03-16T13:05:46.674Z,99792.31
2023-03-16T13:06:53.056Z,99790.56
2023-03-16T13:08:16.765Z,99790.28
2023-03-16T13:09:25.137Z,99791.06
2023-03-16T13:10:29.060Z,99785.06
2023-03-16T13:11:53.903Z,99793.66
2023-03-16T13:13:07.810Z,99788.19
2023-03-16T13:14:18.543Z,99790.56
2023-03-16T13:15:21.595Z,99785.50
2023-03-16T13:16:33.615Z,99791.44
2023-03-16T13:17:41.448Z,99791.88
2023-03-16T13:18:46.819Z,99784.72
2023-03-16T13:20:31.318Z,99789.31
2023-03-16T13:21:43.221Z,99785.78
2023-03-16T13:22:50.445Z,99789.84
2023-03-16T13:24:27.628Z,99793.19
2023-03-16T13:25:31.093Z,99793.03
2023-03-16T13:26:55.254Z,99793.59
2023-03-16T13:28:02.744Z,99792.25
2023-03-16T13:29:29.157Z,99796.13
2023-03-16T13:30:34.563Z,99792.00
2023-03-16T13:31:41.736Z,99791.25
2023-03-16T13:32:47.550Z,99790.38
2023-03-16T13:33:57.136Z,99791.81
2023-03-16T13:35:02.909Z,99794.91
2023-03-16T13:36:08.524Z,99787.09
2023-03-16T13:37:18.486Z,99792.22
2023-03-16T13:38:27.759Z,99784.38
2023-03-16T13:39:34.521Z,99792.09
2023-03-16T13:40:48.982Z,99789.84
2023-03-16T13:42:00.379Z,99785.31
2023-03-16T13:43:04.543Z,99788.72
2023-03-16T13:44:19.099Z,99789.94
2023-03-16T13:45:33.551Z,99791.44
2023-03-16T13:46:40.122Z,99781.69
2023-03-16T13:47:49.325Z,99780.28
2023-03-16T13:48:53.715Z,99781.69
2023-03-16T13:49:59.019Z,99780.81
2023-03-16T13:51:02.138Z,99780.59
2023-03-16T13:52:06.207Z,99790.47
2023-03-16T13:53:30.836Z,99790.47
2023-03-16T13:54:39.210Z,99787.91
2023-03-16T13:55:47.780Z,99784.28
2023-03-16T13:56:54.062Z,99782.00
2023-03-16T13:57:58.443Z,99786.81
2023-03-16T13:59:02.023Z,99792.03
2023-03-16T14:00:19.016Z,99794.53
2023-03-16T14:01:32.922Z,99793.78
2023-03-16T14:02:45.981Z,99786.28